Time;durP1;ratioP1;P1;durP2;ratioP2;P2;SDS_P1;SDS_P2;PMS_P1;PMS_P2;Temp;Humidity;BMP_temperature;BMP_pressure;BME280_temperature;BME280_humidity;BME280_pressure;Samples;Min_cycle;Max_cycle;Signal;HPM_P1;HPM_P2
2023/09/03 00:01:25;;;;;;;2.70;1.90;;;;;;;16.73;100.00;150268.75;4980085;28;20233;-61
2023/09/03 00:03:52;;;;;;;2.60;1.60;;;;;;;16.71;100.00;150263.72;4977529;28;20243;-61
2023/09/03 00:06:18;;;;;;;7.80;2.07;;;;;;;16.72;100.00;150267.47;4980187;28;20244;-62
2023/09/03 00:08:46;;;;;;;5.17;1.83;;;;;;;16.74;100.00;150271.22;4976353;28;20832;-61
2023/09/03 00:11:12;;;;;;;7.30;2.03;;;;;;;16.78;100.00;150282.47;4970082;28;20383;-61
2023/09/03 00:13:40;;;;;;;2.90;2.00;;;;;;;16.74;100.00;150272.47;4954684;28;20251;-61
2023/09/03 00:16:07;;;;;;;5.70;2.30;;;;;;;16.78;100.00;150281.25;4979194;28;20225;-61
2023/09/03 00:18:34;;;;;;;3.77;1.93;;;;;;;16.73;100.00;150268.75;4976547;28;20221;-61
2023/09/03 00:21:04;;;;;;;6.37;1.83;;;;;;;16.68;100.00;150257.47;4978489;28;20246;-61
2023/09/03 00:23:31;;;;;;;2.60;1.73;;;;;;;16.68;100.00;150258.72;4977064;28;20811;-61
2023/09/03 00:25:58;;;;;;;2.90;1.80;;;;;;;16.65;100.00;150251.22;4976037;28;20225;-61
2023/09/03 00:28:26;;;;;;;6.37;2.13;;;;;;;16.63;100.00;150246.22;4977435;28;20631;-61
2023/09/03 00:31:05;;;;;;;3.37;2.07;;;;;;;16.70;100.00;150261.22;4976081;28;20240;-61
2023/09/03 00:33:32;;;;;;;3.67;1.90;;;;;;;16.62;100.00;150243.72;4956031;28;20237;-61
2023/09/03 00:36:00;;;;;;;5.63;1.90;;;;;;;16.60;100.00;150238.72;4944341;28;20236;-61
2023/09/03 00:38:27;;;;;;;4.60;2.30;;;;;;;16.61;100.00;150241.22;4978580;28;20782;-61
2023/09/03 00:40:53;;;;;;;3.77;2.10;;;;;;;16.65;100.00;150251.22;4950423;28;21195;-61
2023/09/03 00:43:20;;;;;;;2.67;1.90;;;;;;;16.67;100.00;150256.22;4961540;28;20245;-61
2023/09/03 00:45:49;;;;;;;7.63;2.00;;;;;;;16.72;100.00;150266.22;4973698;28;20322;-61
2023/09/03 00:48:22;;;;;;;6.00;2.00;;;;;;;16.72;100.00;150267.47;4977095;28;20237;-61
2023/09/03 00:50:49;;;;;;;5.63;1.97;;;;;;;16.73;100.00;150268.75;4974906;28;20229;-61
2023/09/03 00:53:17;;;;;;;4.63;2.73;;;;;;;16.73;100.00;150268.75;4979568;28;20223;-61
2023/09/03 00:55:44;;;;;;;3.63;2.00;;;;;;;16.67;100.00;150256.22;4976772;28;20220;-60
2023/09/03 00:58:11;;;;;;;5.53;2.57;;;;;;;16.64;100.00;150248.72;4979199;28;20227;-61
2023/09/03 01:00:38;;;;;;;4.87;2.43;;;;;;;16.61;100.00;150239.94;4974703;28;20240;-61
2023/09/03 01:03:06;;;;;;;4.00;1.90;;;;;;;16.61;100.00;150241.22;4960195;28;20226;-61
2023/09/03 01:05:33;;;;;;;4.97;2.10;;;;;;;16.56;100.00;150228.72;4976623;28;20244;-61
2023/09/03 01:08:02;;;;;;;2.63;1.93;;;;;;;16.52;100.00;150218.72;4979276;28;20229;-61
2023/09/03 01:10:37;;;;;;;3.30;2.00;;;;;;;16.51;100.00;150217.44;4944440;28;20236;-61
2023/09/03 01:13:12;;;;;;;5.57;2.10;;;;;;;16.56;100.00;150227.44;4976450;28;21604;-61
2023/09/03 01:15:45;;;;;;;4.93;2.00;;;;;;;16.60;100.00;150237.44;4973779;28;20243;-61
2023/09/03 01:18:17;;;;;;;5.27;1.87;;;;;;;16.57;100.00;150231.22;4980054;28;20319;-61
2023/09/03 01:21:01;;;;;;;5.23;2.27;;;;;;;16.60;100.00;150238.72;4976444;28;20216;-61
2023/09/03 01:23:34;;;;;;;5.87;2.10;;;;;;;16.56;100.00;150227.44;4976923;28;20246;-61
2023/09/03 01:26:31;;;;;;;4.40;2.10;;;;;;;16.46;100.00;150203.72;4973631;28;20236;-61
2023/09/03 01:28:59;;;;;;;4.30;2.17;;;;;;;16.42;100.00;150193.72;4972332;28;20593;-61
2023/09/03 01:31:26;;;;;;;5.40;2.00;;;;;;;16.43;100.00;150196.22;4975330;28;20241;-61
2023/09/03 01:34:01;;;;;;;5.03;2.33;;;;;;;16.50;100.00;150213.72;4974334;28;20255;-61
2023/09/03 01:36:35;;;;;;;5.93;1.93;;;;;;;16.45;100.00;150202.44;4971417;28;20326;-61
2023/09/03 01:39:03;;;;;;;3.33;2.40;;;;;;;16.46;100.00;150203.72;4968811;28;20244;-61
2023/09/03 01:41:35;;;;;;;3.17;2.03;;;;;;;16.46;100.00;150203.72;4975367;28;20286;-61
2023/09/03 01:44:04;;;;;;;6.03;2.13;;;;;;;16.50;100.00;150214.94;4960660;28;20251;-61
2023/09/03 01:46:41;;;;;;;6.80;2.20;;;;;;;16.45;100.00;150201.22;4976017;28;20244;-61
2023/09/03 01:49:22;;;;;;;5.70;2.20;;;;;;;16.44;100.00;150198.72;4960522;28;20240;-60
2023/09/03 01:52:01;;;;;;;5.33;1.80;;;;;;;16.43;100.00;150197.44;4973877;28;20884;-61
2023/09/03 01:54:32;;;;;;;5.40;2.10;;;;;;;16.44;100.00;150198.72;4977258;28;20241;-61
2023/09/03 01:57:02;;;;;;;7.10;2.30;;;;;;;16.56;100.00;150227.44;4971773;28;20325;-61
2023/09/03 01:59:36;;;;;;;4.73;2.10;;;;;;;16.51;100.00;150216.22;4975885;28;20697;-61
2023/09/03 02:02:04;;;;;;;3.33;2.33;;;;;;;16.47;100.00;150207.44;4956244;28;20258;-60
2023/09/03 02:04:31;;;;;;;3.43;2.20;;;;;;;16.44;100.00;150198.72;4976148;28;20219;-61
2023/09/03 02:06:57;;;;;;;4.27;2.10;;;;;;;16.39;100.00;150187.50;4946497;28;20236;-61
2023/09/03 02:09:24;;;;;;;4.50;2.20;;;;;;;16.34;100.00;150175.00;4961319;28;20244;-60
2023/09/03 02:11:50;;;;;;;6.97;2.23;;;;;;;16.29;100.00;150162.50;4958148;28;20229;-61
2023/09/03 02:14:17;;;;;;;3.37;2.13;;;;;;;16.26;100.00;150155.00;4958239;28;20244;-61
2023/09/03 02:16:45;;;;;;;3.27;1.97;;;;;;;16.23;100.00;150150.00;4958092;28;20703;-61
2023/09/03 02:19:12;;;;;;;3.40;1.90;;;;;;;16.17;100.00;150133.72;4977818;28;20338;-61
2023/09/03 02:21:38;;;;;;;6.30;2.10;;;;;;;16.18;100.00;150137.50;4956188;28;20237;-61
2023/09/03 02:24:05;;;;;;;2.17;1.73;;;;;;;16.09;100.00;150115.00;4975546;28;20244;-61
2023/09/03 02:26:40;;;;;;;3.40;2.00;;;;;;;16.03;100.00;150101.22;4976576;28;20232;-61
2023/09/03 02:29:08;;;;;;;4.80;2.40;;;;;;;16.00;100.00;150092.50;4976410;28;20462;-60
2023/09/03 02:31:35;;;;;;;2.80;2.20;;;;;;;15.97;100.00;150085.00;4956233;28;20242;-61
2023/09/03 02:34:07;;;;;;;5.80;2.37;;;;;;;15.98;100.00;150088.72;4960161;28;20310;-61
2023/09/03 02:36:35;;;;;;;3.93;2.50;;;;;;;15.91;100.00;150072.50;4955677;28;20746;-61
2023/09/03 02:39:03;;;;;;;3.37;2.13;;;;;;;15.84;100.00;150053.72;4975201;28;20418;-61
2023/09/03 02:41:34;;;;;;;3.43;2.23;;;;;;;15.82;100.00;150048.72;4977947;28;20221;-61
2023/09/03 02:44:02;;;;;;;6.43;2.40;;;;;;;15.76;100.00;150036.22;4976321;28;20240;-60
2023/09/03 02:46:34;;;;;;;3.70;2.40;;;;;;;15.69;100.00;150018.75;4969128;28;20853;-60
2023/09/03 02:49:00;;;;;;;4.43;2.30;;;;;;;15.62;100.00;150001.25;4962181;28;20237;-61
2023/09/03 02:51:33;;;;;;;3.97;2.80;;;;;;;15.60;100.00;149997.47;4978979;28;20244;-61
2023/09/03 02:54:12;;;;;;;4.63;1.80;;;;;;;15.57;100.00;149988.75;4978842;28;20229;-60
2023/09/03 02:56:39;;;;;;;4.23;2.60;;;;;;;15.54;100.00;149981.25;4976794;28;20240;-61
2023/09/03 02:59:05;;;;;;;4.77;2.30;;;;;;;15.62;100.00;150001.25;4966007;28;20253;-61
2023/09/03 03:01:34;;;;;;;5.13;2.50;;;;;;;15.58;100.00;149991.25;4966410;28;20224;-61
2023/09/03 03:04:01;;;;;;;3.80;2.07;;;;;;;15.62;100.00;150001.25;4958984;28;20294;-60
2023/09/03 03:06:32;;;;;;;2.40;2.10;;;;;;;15.56;100.00;149986.25;4985208;28;20239;-60
2023/09/03 03:08:59;;;;;;;5.93;2.53;;;;;;;15.57;100.00;149988.75;4985243;28;20672;-60
2023/09/03 03:11:26;;;;;;;6.23;2.53;;;;;;;15.58;100.00;149991.25;4985427;28;20711;-60
2023/09/03 03:13:57;;;;;;;6.30;2.37;;;;;;;15.53;100.00;149979.97;4957916;28;20248;-60
2023/09/03 03:16:29;;;;;;;3.50;2.50;;;;;;;15.58;100.00;149992.47;4970016;28;20244;-61
2023/09/03 03:18:57;;;;;;;5.73;2.23;;;;;;;15.53;100.00;149978.75;4967034;28;20240;-61
2023/09/03 03:21:28;;;;;;;4.30;2.10;;;;;;;15.50;100.00;149973.75;4969611;28;20221;-60
2023/09/03 03:24:00;;;;;;;4.20;2.60;;;;;;;15.45;100.00;149959.97;4966353;28;20240;-60
2023/09/03 03:26:32;;;;;;;3.37;2.03;;;;;;;15.47;100.00;149964.97;4961665;28;20319;-61
2023/09/03 03:28:59;;;;;;;5.13;2.33;;;;;;;15.43;100.00;149956.25;4967547;28;20296;-60
2023/09/03 03:31:26;;;;;;;7.57;2.30;;;;;;;15.44;100.00;149957.47;5226613;23;20256;-61
2023/09/03 03:33:55;;;;;;;3.87;2.40;;;;;;;15.41;100.00;149951.25;4983256;28;20241;-61
2023/09/03 03:36:24;;;;;;;4.13;2.90;;;;;;;15.43;100.00;149954.97;4982712;28;20235;-60
2023/09/03 03:38:51;;;;;;;3.17;2.13;;;;;;;15.43;100.00;149956.25;4978173;28;20225;-60
2023/09/03 03:41:21;;;;;;;3.63;2.40;;;;;;;15.41;100.00;149950.00;4983841;28;20760;-60
2023/09/03 03:43:52;;;;;;;7.17;2.80;;;;;;;15.41;100.00;149950.00;4983811;28;20224;-60
2023/09/03 03:46:21;;;;;;;5.90;2.23;;;;;;;15.48;100.00;149968.75;4983455;28;20233;-61
2023/09/03 03:48:50;;;;;;;3.83;2.30;;;;;;;15.42;100.00;149953.75;4979119;28;20265;-60
2023/09/03 03:51:19;;;;;;;4.13;2.40;;;;;;;15.45;100.00;149959.97;4983680;28;20227;-61
2023/09/03 03:53:45;;;;;;;7.07;2.40;;;;;;;15.42;100.00;149953.75;4981093;28;20228;-61
2023/09/03 03:56:13;;;;;;;6.57;2.63;;;;;;;15.45;100.00;149959.97;4982413;28;20225;-60
2023/09/03 03:58:43;;;;;;;4.73;2.43;;;;;;;15.34;100.00;149933.78;4984633;28;20281;-60
2023/09/03 04:01:15;;;;;;;3.43;2.40;;;;;;;15.34;100.00;149935.03;4999644;28;20231;-59
2023/09/03 04:03:42;;;;;;;4.33;2.30;;;;;;;15.29;100.00;149922.53;4983524;28;20220;-61
2023/09/03 04:06:09;;;;;;;4.77;2.60;;;;;;;15.29;100.00;149921.28;4981900;28;20305;-61
2023/09/03 04:08:38;;;;;;;7.83;2.60;;;;;;;15.24;100.00;149910.06;4994238;28;20225;-60
2023/09/03 04:11:06;;;;;;;5.40;2.73;;;;;;;15.24;100.00;149908.78;4986379;28;20318;-60
2023/09/03 04:13:32;;;;;;;7.03;2.43;;;;;;;15.24;100.00;149910.06;4981113;28;20225;-60
2023/09/03 04:16:05;;;;;;;5.53;2.03;;;;;;;15.22;100.00;149903.78;4975728;28;20234;-60
2023/09/03 04:18:32;;;;;;;6.27;2.50;;;;;;;15.17;100.00;149893.78;4983238;28;20228;-61
2023/09/03 04:20:59;;;;;;;3.70;2.20;;;;;;;15.15;100.00;149888.78;4996948;28;20238;-60
2023/09/03 04:23:28;;;;;;;5.23;2.40;;;;;;;15.14;100.00;149886.31;4999492;28;20297;-60
2023/09/03 04:25:56;;;;;;;7.50;2.53;;;;;;;15.16;100.00;149891.28;4979546;28;20283;-61
2023/09/03 04:28:25;;;;;;;3.20;2.30;;;;;;;15.16;100.00;149891.28;4986821;28;20234;-61
2023/09/03 04:30:53;;;;;;;3.67;2.27;;;;;;;15.12;100.00;149880.06;4984915;28;20308;-61
2023/09/03 04:33:22;;;;;;;7.70;2.67;;;;;;;15.11;100.00;149878.81;4987693;28;20229;-60
2023/09/03 04:35:54;;;;;;;3.87;2.33;;;;;;;15.07;100.00;149868.81;4999527;28;20269;-60
2023/09/03 04:38:21;;;;;;;4.20;2.40;;;;;;;15.04;100.00;149861.31;4979431;28;20666;-60
2023/09/03 04:40:48;;;;;;;3.97;2.60;;;;;;;15.02;100.00;149856.31;4973109;28;20308;-60
2023/09/03 04:43:14;;;;;;;3.87;2.40;;;;;;;15.01;100.00;149853.81;4999950;28;20280;-59
2023/09/03 04:45:46;;;;;;;5.60;2.70;;;;;;;15.08;100.00;149871.31;4983904;28;20227;-60
2023/09/03 04:48:13;;;;;;;3.87;2.33;;;;;;;15.04;100.00;149862.59;4985667;28;20236;-60
2023/09/03 04:50:41;;;;;;;3.00;2.47;;;;;;;15.04;100.00;149862.59;4991871;28;20769;-61
2023/09/03 04:53:07;;;;;;;7.07;2.70;;;;;;;15.07;100.00;149867.59;4995510;28;20245;-61
2023/09/03 04:55:36;;;;;;;7.87;2.30;;;;;;;15.11;100.00;149877.56;4983522;28;20217;-60
2023/09/03 04:58:03;;;;;;;8.53;2.60;;;;;;;15.23;100.00;149907.56;4985556;28;20238;-60
2023/09/03 05:00:30;;;;;;;5.27;2.50;;;;;;;15.23;100.00;149906.28;4994318;28;21006;-60
2023/09/03 05:02:57;;;;;;;5.30;2.40;;;;;;;15.22;100.00;149905.06;4983197;28;20594;-60
2023/09/03 05:05:24;;;;;;;5.67;2.50;;;;;;;15.28;100.00;149920.06;4978823;28;20238;-60
2023/09/03 05:07:52;;;;;;;4.17;2.40;;;;;;;15.26;100.00;149913.78;4982868;28;20228;-60
2023/09/03 05:10:19;;;;;;;4.70;2.40;;;;;;;15.38;100.00;149942.50;4993915;28;20234;-61
2023/09/03 05:12:46;;;;;;;6.63;2.60;;;;;;;15.39;100.00;149946.25;4982923;28;20238;-61
2023/09/03 05:15:14;;;;;;;5.23;2.50;;;;;;;15.40;100.00;149947.50;4981979;28;20239;-60
2023/09/03 05:17:42;;;;;;;6.90;2.50;;;;;;;15.45;100.00;149961.25;4976116;28;20222;-60
2023/09/03 05:20:09;;;;;;;6.13;2.00;;;;;;;15.50;100.00;149972.47;4996465;28;20246;-60
2023/09/03 05:22:36;;;;;;;6.50;2.37;;;;;;;15.59;100.00;149993.75;4975371;28;20238;-60
2023/09/03 05:25:05;;;;;;;6.20;2.17;;;;;;;15.63;100.00;150004.97;4994664;28;20261;-60
2023/09/03 05:27:32;;;;;;;2.87;2.40;;;;;;;15.65;100.00;150008.75;4977975;28;20288;-60
2023/09/03 05:29:59;;;;;;;6.23;2.27;;;;;;;15.73;100.00;150027.47;4999877;28;20243;-61
2023/09/03 05:32:26;;;;;;;6.17;2.57;;;;;;;15.76;100.00;150034.97;4995187;28;20318;-61
2023/09/03 05:34:52;;;;;;;4.17;2.57;;;;;;;15.88;100.00;150063.78;4992226;28;20247;-60
2023/09/03 05:37:19;;;;;;;6.53;2.57;;;;;;;15.93;100.00;150076.22;5001777;28;20306;-60
2023/09/03 05:39:46;;;;;;;3.93;2.57;;;;;;;16.01;100.00;150095.00;4975285;28;20709;-60
2023/09/03 05:42:14;;;;;;;5.80;2.50;;;;;;;16.09;100.00;150115.00;5001679;28;20238;-61
2023/09/03 05:44:40;;;;;;;4.37;2.53;;;;;;;16.13;100.00;150125.00;4976668;28;20214;-61
2023/09/03 05:47:07;;;;;;;11.13;2.30;;;;;;;16.20;100.00;150141.22;4978691;28;20241;-60
2023/09/03 05:49:35;;;;;;;4.07;2.10;;;;;;;16.29;100.00;150162.50;4977298;28;20658;-61
2023/09/03 05:52:01;;;;;;;8.93;2.27;;;;;;;16.36;100.00;150181.22;4978596;28;20230;-61
2023/09/03 05:54:28;;;;;;;4.70;2.27;;;;;;;16.45;100.00;150201.22;4978918;28;20916;-60
2023/09/03 05:56:55;;;;;;;5.77;2.23;;;;;;;16.51;100.00;150216.22;4976472;28;20753;-61
2023/09/03 05:59:23;;;;;;;4.60;2.23;;;;;;;16.59;100.00;150236.22;4980589;28;20241;-61
2023/09/03 06:01:50;;;;;;;3.10;2.20;;;;;;;16.71;100.00;150263.72;4998203;28;20239;-61
2023/09/03 06:04:16;;;;;;;7.23;3.57;;;;;;;16.74;100.00;150272.47;4979698;28;20224;-61
2023/09/03 06:06:44;;;;;;;5.37;2.80;;;;;;;16.86;100.00;150301.25;4978250;28;20649;-58
2023/09/03 06:09:10;;;;;;;4.67;2.80;;;;;;;16.89;100.00;150308.75;4996860;28;20247;-58
2023/09/03 06:11:37;;;;;;;6.00;2.40;;;;;;;16.92;100.00;150314.97;4993390;28;20225;-59
2023/09/03 06:14:04;;;;;;;4.07;2.30;;;;;;;17.02;100.00;150338.75;4994168;28;20298;-60
2023/09/03 06:16:35;;;;;;;3.73;2.47;;;;;;;17.12;100.00;150363.78;4995046;28;20228;-60
2023/09/03 06:19:02;;;;;;;6.00;2.80;;;;;;;17.19;100.00;150381.28;4999013;28;20248;-61
2023/09/03 06:21:33;;;;;;;4.97;2.70;;;;;;;17.27;100.00;150400.06;4999619;28;20624;-60
2023/09/03 06:24:00;;;;;;;8.27;2.97;;;;;;;17.37;100.00;150423.81;4995366;28;20244;-60
2023/09/03 06:26:27;;;;;;;3.83;2.50;;;;;;;17.42;100.00;150436.31;4993959;28;20708;-60
2023/09/03 06:28:53;;;;;;;5.50;2.93;;;;;;;17.44;100.00;150441.31;4993487;28;20238;-60
2023/09/03 06:31:20;;;;;;;6.93;3.60;;;;;;;17.51;100.00;150457.56;4997580;28;20251;-60
2023/09/03 06:33:48;;;;;;;10.87;3.53;;;;;;;17.65;100.00;150491.38;4993611;28;20240;-60
2023/09/03 06:36:15;;;;;;;5.03;3.60;;;;;;;17.71;100.00;150507.59;4999173;28;20228;-60
2023/09/03 06:38:43;;;;;;;5.47;3.33;;;;;;;17.83;100.00;150535.13;4995331;28;20888;-60
2023/09/03 06:41:10;;;;;;;9.23;3.40;;;;;;;18.01;100.00;150579.00;4999439;28;20243;-60
2023/09/03 06:43:37;;;;;;;4.53;3.40;;;;;;;18.17;100.00;150617.75;4997236;28;20264;-60
2023/09/03 06:46:03;;;;;;;5.00;3.47;;;;;;;18.24;100.00;150635.28;4999678;28;20232;-60
2023/09/03 06:48:30;;;;;;;6.20;3.20;;;;;;;18.27;100.00;150642.78;4999763;28;20245;-60
2023/09/03 06:50:58;;;;;;;4.53;2.87;;;;;;;18.45;100.00;150685.34;4993689;28;20233;-60
2023/09/03 06:53:25;;;;;;;6.20;3.10;;;;;;;18.60;100.00;150721.63;5000123;28;20595;-60
2023/09/03 06:55:52;;;;;;;5.60;2.80;;;;;;;18.74;100.00;150755.41;4993024;28;20309;-60
2023/09/03 06:58:19;;;;;;;3.63;2.37;;;;;;;18.90;100.00;150794.22;4997069;28;20238;-60
2023/09/03 07:00:46;;;;;;;5.47;2.90;;;;;;;19.01;100.00;150821.81;4993774;28;20229;-60
2023/09/03 07:03:13;;;;;;;7.37;3.20;;;;;;;19.01;100.00;150821.81;4997812;28;20269;-60
2023/09/03 07:05:40;;;;;;;6.10;2.67;;;;;;;19.21;100.00;150868.13;4997324;28;20224;-60
2023/09/03 07:08:08;;;;;;;5.57;2.63;;;;;;;19.36;100.00;150905.69;4999530;28;20257;-60
2023/09/03 07:10:34;;;;;;;3.67;2.30;;;;;;;19.47;100.00;150931.97;4984979;28;20586;-60
2023/09/03 07:13:01;;;;;;;3.90;2.50;;;;;;;19.68;100.00;150983.28;4997883;28;20236;-60
2023/09/03 07:15:28;;;;;;;5.70;2.87;;;;;;;19.83;100.00;151018.38;4999232;28;20230;-60
2023/09/03 07:17:54;;;;;;;5.20;2.53;;;;;;;20.00;100.00;151059.78;4998904;28;20248;-60
2023/09/03 07:20:21;;;;;;;5.07;2.27;;;;;;;20.13;100.00;151092.34;5001311;28;20240;-61
2023/09/03 07:22:48;;;;;;;8.77;2.70;;;;;;;20.20;100.00;151108.63;4995643;28;20593;-60
2023/09/03 07:25:16;;;;;;;7.33;2.93;;;;;;;20.20;100.00;151109.84;4998772;28;20232;-60
2023/09/03 07:27:42;;;;;;;7.80;2.93;;;;;;;20.17;98.77;151101.09;4999559;28;20233;-60
2023/09/03 07:30:10;;;;;;;3.60;2.47;;;;;;;20.04;99.40;151069.81;5001635;28;20322;-61
2023/09/03 07:32:37;;;;;;;5.70;2.50;;;;;;;20.17;99.14;151102.31;4978260;28;20230;-60
2023/09/03 07:35:05;;;;;;;4.97;2.80;;;;;;;20.30;97.54;151132.41;4999471;28;20230;-60
2023/09/03 07:37:32;;;;;;;5.90;2.90;;;;;;;20.24;97.50;151117.38;4999132;28;20238;-60
2023/09/03 07:39:59;;;;;;;4.73;2.80;;;;;;;20.11;98.91;151087.34;4981219;28;20233;-60
2023/09/03 07:42:27;;;;;;;4.77;2.90;;;;;;;20.06;98.43;151074.81;4987871;28;20233;-60
2023/09/03 07:44:54;;;;;;;6.70;2.90;;;;;;;20.01;99.45;151062.28;4994300;28;21362;-60
2023/09/03 07:47:20;;;;;;;5.27;2.90;;;;;;;19.96;100.00;151051.00;4996251;28;20249;-60
2023/09/03 07:49:47;;;;;;;3.90;3.27;;;;;;;20.17;99.12;151102.31;4993385;28;20238;-60
2023/09/03 07:52:13;;;;;;;5.77;3.20;;;;;;;20.31;98.87;151136.19;4998384;28;20234;-60
2023/09/03 07:54:40;;;;;;;6.90;3.10;;;;;;;20.39;99.82;151154.94;4999517;28;20229;-60
2023/09/03 07:57:07;;;;;;;5.70;2.97;;;;;;;20.31;96.51;151136.19;4999845;28;20313;-60
2023/09/03 07:59:35;;;;;;;5.23;3.40;;;;;;;20.21;96.41;151111.13;4997044;28;20224;-60
2023/09/03 08:02:02;;;;;;;4.43;2.67;;;;;;;20.12;97.57;151089.84;4994246;28;20314;-60
2023/09/03 08:04:29;;;;;;;4.97;3.20;;;;;;;20.20;96.60;151108.63;4996531;28;20246;-61
2023/09/03 08:06:56;;;;;;;7.77;3.33;;;;;;;20.35;97.14;151144.94;4997050;28;20233;-61
2023/09/03 08:09:24;;;;;;;7.83;3.53;;;;;;;20.41;97.18;151159.97;4998194;28;20226;-60
2023/09/03 08:11:51;;;;;;;5.77;3.47;;;;;;;20.50;95.37;151182.53;4998498;28;20238;-61
2023/09/03 08:14:17;;;;;;;4.00;3.30;;;;;;;20.62;96.40;151210.09;4999221;28;20471;-60
2023/09/03 08:16:45;;;;;;;4.63;3.10;;;;;;;20.75;94.97;151242.69;4993889;28;20232;-61
2023/09/03 08:19:11;;;;;;;4.23;2.97;;;;;;;20.76;93.90;151243.91;4997460;28;20568;-60
2023/09/03 08:21:37;;;;;;;4.90;3.30;;;;;;;20.78;94.47;151248.97;4995041;28;20675;-60
2023/09/03 08:24:04;;;;;;;6.73;3.37;;;;;;;20.94;93.90;151287.84;4997808;28;20237;-60
2023/09/03 08:26:34;;;;;;;7.00;3.53;;;;;;;20.99;93.50;151300.38;4993641;28;20251;-60
2023/09/03 08:29:00;;;;;;;8.97;3.93;;;;;;;20.94;93.09;151287.84;4997746;28;20580;-60
2023/09/03 08:31:27;;;;;;;6.50;3.90;;;;;;;20.98;94.46;151297.88;4998460;28;20246;-61
2023/09/03 08:33:56;;;;;;;4.60;3.43;;;;;;;21.01;94.49;151305.38;4994088;28;20244;-60
2023/09/03 08:36:24;;;;;;;5.17;3.50;;;;;;;21.10;94.66;151326.69;4995773;28;20243;-61
2023/09/03 08:38:51;;;;;;;4.80;3.13;;;;;;;21.23;95.21;151359.28;4995035;28;20289;-60
2023/09/03 08:41:19;;;;;;;5.07;3.47;;;;;;;21.12;93.48;151331.69;4985657;28;20253;-61
2023/09/03 08:43:49;;;;;;;5.33;3.10;;;;;;;21.19;94.50;151348.00;4996551;28;20223;-60
2023/09/03 08:46:19;;;;;;;4.10;3.37;;;;;;;21.26;94.68;151365.50;4996333;28;20315;-60
2023/09/03 08:48:47;;;;;;;5.40;3.87;;;;;;;21.26;93.52;151364.28;4993573;28;20223;-60
2023/09/03 08:51:15;;;;;;;6.27;3.83;;;;;;;21.20;94.65;151351.75;4998774;28;20335;-60
2023/09/03 08:53:45;;;;;;;6.30;4.03;;;;;;;21.21;95.48;151354.25;4991546;28;20212;-60
2023/09/03 08:56:12;;;;;;;5.97;3.70;;;;;;;21.09;96.50;151324.16;4995016;28;20226;-60
2023/09/03 08:58:39;;;;;;;6.13;4.00;;;;;;;21.15;95.66;151337.97;4993592;28;20227;-60
2023/09/03 09:01:07;;;;;;;6.50;4.67;;;;;;;21.11;96.38;151329.19;4998122;28;20237;-60
2023/09/03 09:03:36;;;;;;;6.23;3.70;;;;;;;21.13;95.95;151334.19;4993026;28;20243;-60
2023/09/03 09:06:05;;;;;;;8.87;4.27;;;;;;;21.12;96.08;151330.47;4999032;28;20572;-60
2023/09/03 09:08:34;;;;;;;8.60;4.00;;;;;;;21.32;94.82;151380.56;4997007;28;20587;-62
2023/09/03 09:11:05;;;;;;;6.00;4.53;;;;;;;21.28;94.81;151369.28;4992834;28;20252;-60
2023/09/03 09:13:36;;;;;;;9.10;4.63;;;;;;;21.29;95.16;151373.03;4994627;28;20235;-60
2023/09/03 09:16:04;;;;;;;5.30;3.87;;;;;;;21.46;95.66;151413.16;4993238;28;20250;-60
2023/09/03 09:18:30;;;;;;;5.80;3.83;;;;;;;21.73;93.27;151479.63;4995817;28;20234;-60
2023/09/03 09:21:00;;;;;;;5.17;3.70;;;;;;;21.58;93.98;151443.25;4991448;28;20255;-60
2023/09/03 09:23:28;;;;;;;5.73;3.53;;;;;;;21.95;93.51;151532.28;4996615;28;20777;-60
2023/09/03 09:25:56;;;;;;;7.37;3.70;;;;;;;22.34;89.60;151626.34;4996100;28;20244;-60
2023/09/03 09:28:23;;;;;;;5.00;3.60;;;;;;;22.37;89.02;151635.16;4998712;28;20286;-60
2023/09/03 09:30:54;;;;;;;4.70;3.77;;;;;;;22.53;86.45;151672.81;4990971;28;20245;-60
2023/09/03 09:33:21;;;;;;;6.20;3.20;;;;;;;22.65;88.74;151701.66;4996081;28;20564;-60
2023/09/03 09:35:48;;;;;;;4.97;3.50;;;;;;;22.87;88.64;151754.34;4996712;28;20226;-60
2023/09/03 09:38:15;;;;;;;3.50;3.10;;;;;;;23.18;83.75;151829.63;4995030;28;20235;-60
2023/09/03 09:40:42;;;;;;;5.30;3.13;;;;;;;22.84;87.02;151749.34;4990140;28;20233;-60
2023/09/03 09:43:10;;;;;;;5.30;2.63;;;;;;;23.20;84.67;151834.66;4994589;28;20616;-60
2023/09/03 09:45:48;;;;;;;3.53;2.70;;;;;;;23.33;85.39;151867.28;4994967;28;20961;-60
2023/09/03 09:48:15;;;;;;;4.27;2.70;;;;;;;23.30;85.63;151859.81;4995605;28;20236;-60
2023/09/03 09:50:44;;;;;;;6.27;2.87;;;;;;;23.25;86.75;151848.50;4986728;28;20234;-60
2023/09/03 09:53:21;;;;;;;3.10;2.60;;;;;;;23.18;86.32;151830.88;4985738;28;20599;-60
2023/09/03 09:55:48;;;;;;;4.60;3.00;;;;;;;23.68;85.85;151951.41;4969351;28;20245;-60
2023/09/03 09:58:16;;;;;;;4.83;3.03;;;;;;;23.67;85.63;151950.13;4988727;28;20234;-60
2023/09/03 10:00:42;;;;;;;6.40;2.83;;;;;;;23.35;86.62;151871.06;4984301;28;20222;-60
2023/09/03 10:03:11;;;;;;;4.07;2.70;;;;;;;23.67;84.61;151950.13;4986499;28;20238;-60
2023/09/03 10:05:38;;;;;;;5.70;2.73;;;;;;;23.70;85.79;151957.66;4994955;28;20226;-60
2023/09/03 10:08:05;;;;;;;4.50;2.40;;;;;;;23.79;87.59;151977.75;4993352;28;20236;-60
2023/09/03 10:10:32;;;;;;;4.03;2.50;;;;;;;24.12;87.15;152059.38;4995079;28;20240;-61
2023/09/03 10:12:59;;;;;;;3.73;2.77;;;;;;;24.32;85.31;152107.06;4992293;28;20242;-60
2023/09/03 10:15:29;;;;;;;2.75;2.55;;;;;;;24.27;83.11;152094.53;4995366;28;20475;-60
2023/09/03 10:17:59;;;;;;;3.90;2.40;;;;;;;24.50;84.30;152149.78;4993922;28;20237;-63
2023/09/03 10:20:28;;;;;;;2.50;1.90;;;;;;;24.79;79.19;152220.16;4987916;28;20265;-61
2023/09/03 10:22:57;;;;;;;2.87;2.20;;;;;;;24.86;78.76;152238.97;4996078;28;20246;-61
2023/09/03 10:25:27;;;;;;;2.53;2.33;;;;;;;24.97;78.27;152265.31;4977935;28;20260;-61
2023/09/03 10:28:00;;;;;;;2.90;1.97;;;;;;;25.12;78.95;152301.78;4994690;28;20408;-63
2023/09/03 10:30:32;;;;;;;2.33;2.07;;;;;;;25.09;76.41;152294.22;4995918;28;20586;-62
2023/09/03 10:32:59;;;;;;;4.33;2.00;;;;;;;25.23;72.00;152328.13;4961906;28;20746;-60
2023/09/03 10:35:26;;;;;;;3.20;1.77;;;;;;;24.89;71.96;152245.28;4986517;28;20234;-62
2023/09/03 10:37:53;;;;;;;3.70;1.60;;;;;;;24.96;74.00;152262.81;4990626;28;20235;-62
2023/09/03 10:40:22;;;;;;;2.10;1.53;;;;;;;25.24;72.70;152329.41;4996899;28;20272;-61
2023/09/03 10:42:49;;;;;;;2.83;1.87;;;;;;;25.20;72.21;152321.88;4975069;28;20227;-61
2023/09/03 10:45:16;;;;;;;3.30;1.77;;;;;;;25.33;70.75;152353.25;4997168;28;20271;-62
2023/09/03 10:48:02;;;;;;;6.00;1.70;;;;;;;25.13;72.11;152303.00;4989308;28;20229;-61
2023/09/03 10:50:42;;;;;;;3.10;1.77;;;;;;;24.89;72.97;152245.28;4988335;28;20237;-62
2023/09/03 10:53:09;;;;;;;2.60;1.77;;;;;;;24.90;72.20;152249.00;4993961;28;20257;-61
2023/09/03 10:55:36;;;;;;;3.20;1.70;;;;;;;24.81;72.59;152226.41;4991804;28;20245;-62
2023/09/03 10:58:31;;;;;;;1.80;1.70;;;;;;;24.97;72.68;152265.31;4998406;28;20262;-62
2023/09/03 11:01:20;;;;;;;3.13;1.70;;;;;;;25.18;71.48;152316.84;4984699;28;20313;-62
2023/09/03 11:03:49;;;;;;;1.60;1.50;;;;;;;25.54;71.36;152403.56;4992570;28;20243;-61
2023/09/03 11:06:18;;;;;;;2.73;1.40;;;;;;;25.49;71.09;152392.22;4997116;28;20709;-61
2023/09/03 11:08:45;;;;;;;1.93;1.43;;;;;;;25.73;68.94;152450.00;4992307;28;20224;-61
2023/09/03 11:11:19;;;;;;;2.60;1.40;;;;;;;25.69;67.69;152438.72;4996252;28;20241;-61
2023/09/03 11:13:49;;;;;;;1.77;1.27;;;;;;;25.36;68.93;152359.56;4994375;28;20233;-61
2023/09/03 11:16:16;;;;;;;3.40;1.73;;;;;;;25.46;67.46;152384.69;4994701;28;20561;-61
2023/09/03 11:18:49;;;;;;;4.33;1.50;;;;;;;25.75;67.35;152455.03;4990990;28;20233;-61
2023/09/03 11:21:16;;;;;;;1.93;1.53;;;;;;;25.44;65.62;152378.38;4976523;28;20239;-61
2023/09/03 11:23:59;;;;;;;2.30;1.40;;;;;;;25.75;64.42;152455.03;4981119;28;20227;-61
2023/09/03 11:26:25;;;;;;;6.23;1.43;;;;;;;25.48;65.93;152389.72;4993827;28;20294;-61